Terminal Aerodrome Forecast
Issued by NWS Charleston, WV

Current Version | Previous Version | Text Only | Print | Product List | Glossary Off
Versions: 1 2 3 4 5 6 7 8 9 10 11 12 13 14 15 16 17 18 19 20 21

000
FTUS41 KRLX 231400 AAA
TAFEKN
TAF AMD
KEKN 231442Z 2315/2412 17007KT P6SM SCT025
     FM232100 15013G23KT P6SM BKN080
     FM240200 14016G27KT 2SM -RA BR OVC080
     FM240600 15013G18KT 5SM -SHRA BR OVC035
     FM240800 20013KT 6SM BR BKN020
     FM241000 20011G17KT P6SM BKN140=

USA.gov is the U.S. government's official web portal to all federal, state and local government web resources and services.